sensor_id;sensor_type;location;lat;lon;timestamp;pressure;altitude;pressure_sealevel;temperature
67353;BMP180;54238;52.278;21.056;2023-04-24T00:00:09;99631.20;;;14.80
67353;BMP180;54238;52.278;21.056;2023-04-24T00:03:00;99630.80;;;14.80
67353;BMP180;54238;52.278;21.056;2023-04-24T00:05:31;99632.20;;;14.80
67353;BMP180;54238;52.278;21.056;2023-04-24T00:08:03;99626.00;;;14.70
67353;BMP180;54238;52.278;21.056;2023-04-24T00:10:30;99624.60;;;14.70
67353;BMP180;54238;52.278;21.056;2023-04-24T00:13:00;99624.60;;;14.70
67353;BMP180;54238;52.278;21.056;2023-04-24T00:15:39;99623.60;;;14.70
67353;BMP180;54238;52.278;21.056;2023-04-24T00:18:10;99627.00;;;14.60
67353;BMP180;54238;52.278;21.056;2023-04-24T00:21:12;99623.40;;;14.60
67353;BMP180;54238;52.278;21.056;2023-04-24T00:23:44;99617.80;;;14.60
67353;BMP180;54238;52.278;21.056;2023-04-24T00:26:11;99615.80;;;14.50
67353;BMP180;54238;52.278;21.056;2023-04-24T00:28:41;99613.20;;;14.50
67353;BMP180;54238;52.278;21.056;2023-04-24T00:31:20;99610.60;;;14.50
67353;BMP180;54238;52.278;21.056;2023-04-24T00:33:51;99611.40;;;14.40
67353;BMP180;54238;52.278;21.056;2023-04-24T00:36:20;99609.20;;;14.40
67353;BMP180;54238;52.278;21.056;2023-04-24T00:38:50;99605.00;;;14.40
67353;BMP180;54238;52.278;21.056;2023-04-24T00:41:31;99603.80;;;14.40
67353;BMP180;54238;52.278;21.056;2023-04-24T00:43:58;99602.20;;;14.34
67353;BMP180;54238;52.278;21.056;2023-04-24T00:49:21;99600.40;;;14.30
67353;BMP180;54238;52.278;21.056;2023-04-24T00:51:51;99607.40;;;14.30
67353;BMP180;54238;52.278;21.056;2023-04-24T00:54:18;99605.60;;;14.30
67353;BMP180;54238;52.278;21.056;2023-04-24T00:56:48;99600.00;;;14.30
67353;BMP180;54238;52.278;21.056;2023-04-24T00:59:21;99599.00;;;14.28
67353;BMP180;54238;52.278;21.056;2023-04-24T01:01:51;99599.80;;;14.20
67353;BMP180;54238;52.278;21.056;2023-04-24T01:04:20;99600.40;;;14.20
67353;BMP180;54238;52.278;21.056;2023-04-24T01:06:49;99595.60;;;14.20
67353;BMP180;54238;52.278;21.056;2023-04-24T01:09:22;99601.40;;;14.20
67353;BMP180;54238;52.278;21.056;2023-04-24T01:11:50;99605.20;;;14.20
67353;BMP180;54238;52.278;21.056;2023-04-24T01:14:22;99608.60;;;14.20
67353;BMP180;54238;52.278;21.056;2023-04-24T01:16:49;99609.60;;;14.20
67353;BMP180;54238;52.278;21.056;2023-04-24T01:19:23;99600.60;;;14.10
67353;BMP180;54238;52.278;21.056;2023-04-24T01:21:53;99601.40;;;14.10
67353;BMP180;54238;52.278;21.056;2023-04-24T01:24:28;99602.60;;;14.10
67353;BMP180;54238;52.278;21.056;2023-04-24T01:26:57;99606.60;;;14.10
67353;BMP180;54238;52.278;21.056;2023-04-24T01:29:25;99606.40;;;14.10
67353;BMP180;54238;52.278;21.056;2023-04-24T01:31:52;99598.00;;;14.10
67353;BMP180;54238;52.278;21.056;2023-04-24T01:34:20;99597.40;;;14.04
67353;BMP180;54238;52.278;21.056;2023-04-24T01:36:50;99594.20;;;14.00
67353;BMP180;54238;52.278;21.056;2023-04-24T01:39:18;99595.00;;;14.00
67353;BMP180;54238;52.278;21.056;2023-04-24T01:41:49;99595.60;;;13.90
67353;BMP180;54238;52.278;21.056;2023-04-24T01:44:18;99590.20;;;13.90
67353;BMP180;54238;52.278;21.056;2023-04-24T01:46:48;99587.40;;;13.88
67353;BMP180;54238;52.278;21.056;2023-04-24T01:49:20;99583.20;;;13.80
67353;BMP180;54238;52.278;21.056;2023-04-24T01:51:49;99581.80;;;13.80
67353;BMP180;54238;52.278;21.056;2023-04-24T01:54:16;99581.00;;;13.74
67353;BMP180;54238;52.278;21.056;2023-04-24T01:56:46;99577.40;;;13.70
67353;BMP180;54238;52.278;21.056;2023-04-24T01:59:13;99571.60;;;13.70
67353;BMP180;54238;52.278;21.056;2023-04-24T02:01:44;99571.20;;;13.60
67353;BMP180;54238;52.278;21.056;2023-04-24T02:04:18;99572.00;;;13.60
67353;BMP180;54238;52.278;21.056;2023-04-24T02:06:48;99569.80;;;13.50
67353;BMP180;54238;52.278;21.056;2023-04-24T02:09:15;99562.40;;;13.50
67353;BMP180;54238;52.278;21.056;2023-04-24T02:11:45;99563.60;;;13.46
67353;BMP180;54238;52.278;21.056;2023-04-24T02:14:42;99561.60;;;13.40
67353;BMP180;54238;52.278;21.056;2023-04-24T02:17:12;99558.00;;;13.40
67353;BMP180;54238;52.278;21.056;2023-04-24T02:19:43;99558.60;;;13.40
67353;BMP180;54238;52.278;21.056;2023-04-24T02:22:10;99554.20;;;13.36
67353;BMP180;54238;52.278;21.056;2023-04-24T02:24:44;99555.60;;;13.30
67353;BMP180;54238;52.278;21.056;2023-04-24T02:27:11;99547.20;;;13.30
67353;BMP180;54238;52.278;21.056;2023-04-24T02:29:44;99539.60;;;13.28
67353;BMP180;54238;52.278;21.056;2023-04-24T02:32:16;99538.00;;;13.20
67353;BMP180;54238;52.278;21.056;2023-04-24T02:35:00;99539.80;;;13.20
67353;BMP180;54238;52.278;21.056;2023-04-24T02:37:27;99545.80;;;13.20
67353;BMP180;54238;52.278;21.056;2023-04-24T02:39:57;99552.00;;;13.20
67353;BMP180;54238;52.278;21.056;2023-04-24T02:42:24;99547.60;;;13.20
67353;BMP180;54238;52.278;21.056;2023-04-24T02:44:56;99541.60;;;13.18
67353;BMP180;54238;52.278;21.056;2023-04-24T02:47:25;99543.80;;;13.14
67353;BMP180;54238;52.278;21.056;2023-04-24T02:49:59;99546.00;;;13.10
67353;BMP180;54238;52.278;21.056;2023-04-24T02:52:26;99549.00;;;13.10
67353;BMP180;54238;52.278;21.056;2023-04-24T02:54:58;99545.20;;;13.04
67353;BMP180;54238;52.278;21.056;2023-04-24T02:57:25;99539.00;;;13.00
67353;BMP180;54238;52.278;21.056;2023-04-24T02:59:52;99540.80;;;13.00
67353;BMP180;54238;52.278;21.056;2023-04-24T03:02:19;99535.40;;;13.00
67353;BMP180;54238;52.278;21.056;2023-04-24T03:04:53;99535.00;;;13.00
67353;BMP180;54238;52.278;21.056;2023-04-24T03:07:24;99533.60;;;13.00
67353;BMP180;54238;52.278;21.056;2023-04-24T03:09:51;99532.60;;;13.00
67353;BMP180;54238;52.278;21.056;2023-04-24T03:12:18;99531.20;;;12.98
67353;BMP180;54238;52.278;21.056;2023-04-24T03:14:50;99535.20;;;12.90
67353;BMP180;54238;52.278;21.056;2023-04-24T03:17:22;99531.40;;;12.90
67353;BMP180;54238;52.278;21.056;2023-04-24T03:19:51;99526.40;;;12.90
67353;BMP180;54238;52.278;21.056;2023-04-24T03:22:21;99527.40;;;12.84
67353;BMP180;54238;52.278;21.056;2023-04-24T03:24:50;99532.80;;;12.80
67353;BMP180;54238;52.278;21.056;2023-04-24T03:27:22;99533.60;;;12.80
67353;BMP180;54238;52.278;21.056;2023-04-24T03:29:51;99533.80;;;12.80
67353;BMP180;54238;52.278;21.056;2023-04-24T03:32:24;99533.40;;;12.80
67353;BMP180;54238;52.278;21.056;2023-04-24T03:34:54;99536.00;;;12.80
67353;BMP180;54238;52.278;21.056;2023-04-24T03:37:21;99539.00;;;12.80
67353;BMP180;54238;52.278;21.056;2023-04-24T03:39:48;99535.60;;;12.80
67353;BMP180;54238;52.278;21.056;2023-04-24T03:42:16;99538.20;;;12.78
67353;BMP180;54238;52.278;21.056;2023-04-24T03:44:46;99538.60;;;12.70
67353;BMP180;54238;52.278;21.056;2023-04-24T03:47:15;99538.00;;;12.70
67353;BMP180;54238;52.278;21.056;2023-04-24T03:49:45;99537.80;;;12.74
67353;BMP180;54238;52.278;21.056;2023-04-24T03:52:12;99537.00;;;12.80
67353;BMP180;54238;52.278;21.056;2023-04-24T03:54:39;99537.20;;;12.80
67353;BMP180;54238;52.278;21.056;2023-04-24T03:57:06;99537.20;;;12.80
67353;BMP180;54238;52.278;21.056;2023-04-24T03:59:38;99538.00;;;12.78
67353;BMP180;54238;52.278;21.056;2023-04-24T04:02:08;99539.00;;;12.72
67353;BMP180;54238;52.278;21.056;2023-04-24T04:04:35;99539.60;;;12.70
67353;BMP180;54238;52.278;21.056;2023-04-24T04:07:04;99534.00;;;12.70
67353;BMP180;54238;52.278;21.056;2023-04-24T04:09:37;99531.40;;;12.70
67353;BMP180;54238;52.278;21.056;2023-04-24T04:12:09;99537.40;;;12.70
67353;BMP180;54238;52.278;21.056;2023-04-24T04:14:41;99537.00;;;12.68
67353;BMP180;54238;52.278;21.056;2023-04-24T04:17:10;99532.80;;;12.60
67353;BMP180;54238;52.278;21.056;2023-04-24T04:19:37;99535.60;;;12.60
67353;BMP180;54238;52.278;21.056;2023-04-24T04:22:05;99532.00;;;12.60
67353;BMP180;54238;52.278;21.056;2023-04-24T04:24:32;99533.20;;;12.60
67353;BMP180;54238;52.278;21.056;2023-04-24T04:27:01;99539.60;;;12.60
67353;BMP180;54238;52.278;21.056;2023-04-24T04:29:32;99544.80;;;12.60
67353;BMP180;54238;52.278;21.056;2023-04-24T04:31:59;99546.80;;;12.62
67353;BMP180;54238;52.278;21.056;2023-04-24T04:34:34;99554.00;;;12.70
67353;BMP180;54238;52.278;21.056;2023-04-24T04:37:06;99552.40;;;12.68
67353;BMP180;54238;52.278;21.056;2023-04-24T04:39:38;99550.80;;;12.62
67353;BMP180;54238;52.278;21.056;2023-04-24T04:42:09;99550.00;;;12.64
67353;BMP180;54238;52.278;21.056;2023-04-24T04:44:37;99542.60;;;12.66
67353;BMP180;54238;52.278;21.056;2023-04-24T04:47:05;99545.00;;;12.70
67353;BMP180;54238;52.278;21.056;2023-04-24T04:49:32;99542.80;;;12.70
67353;BMP180;54238;52.278;21.056;2023-04-24T04:52:01;99538.40;;;12.70
67353;BMP180;54238;52.278;21.056;2023-04-24T04:54:36;99536.20;;;12.74
67353;BMP180;54238;52.278;21.056;2023-04-24T04:57:08;99534.80;;;12.80
67353;BMP180;54238;52.278;21.056;2023-04-24T04:59:36;99535.20;;;12.80
67353;BMP180;54238;52.278;21.056;2023-04-24T05:02:06;99534.00;;;12.80
67353;BMP180;54238;52.278;21.056;2023-04-24T05:04:36;99531.20;;;12.80
67353;BMP180;54238;52.278;21.056;2023-04-24T05:07:03;99530.60;;;12.80
67353;BMP180;54238;52.278;21.056;2023-04-24T05:09:33;99532.80;;;12.90
67353;BMP180;54238;52.278;21.056;2023-04-24T05:12:00;99531.20;;;12.90
67353;BMP180;54238;52.278;21.056;2023-04-24T05:14:35;99527.80;;;12.94
67353;BMP180;54238;52.278;21.056;2023-04-24T05:17:02;99530.00;;;13.00
67353;BMP180;54238;52.278;21.056;2023-04-24T05:19:30;99523.20;;;13.00
67353;BMP180;54238;52.278;21.056;2023-04-24T05:22:02;99528.60;;;13.10
67353;BMP180;54238;52.278;21.056;2023-04-24T05:24:34;99527.40;;;13.20
67353;BMP180;54238;52.278;21.056;2023-04-24T05:27:06;99524.20;;;13.20
67353;BMP180;54238;52.278;21.056;2023-04-24T05:29:33;99520.40;;;13.30
67353;BMP180;54238;52.278;21.056;2023-04-24T05:32:00;99522.80;;;13.42
67353;BMP180;54238;52.278;21.056;2023-04-24T05:34:30;99527.00;;;13.60
67353;BMP180;54238;52.278;21.056;2023-04-24T05:36:58;99523.80;;;13.70
67353;BMP180;54238;52.278;21.056;2023-04-24T05:39:27;99527.60;;;13.80
67353;BMP180;54238;52.278;21.056;2023-04-24T05:41:54;99525.20;;;13.90
67353;BMP180;54238;52.278;21.056;2023-04-24T05:44:27;99524.40;;;14.00
67353;BMP180;54238;52.278;21.056;2023-04-24T05:46:59;99524.40;;;14.10
67353;BMP180;54238;52.278;21.056;2023-04-24T05:49:28;99523.20;;;14.20
67353;BMP180;54238;52.278;21.056;2023-04-24T05:51:58;99522.80;;;14.40
67353;BMP180;54238;52.278;21.056;2023-04-24T05:54:29;99514.60;;;14.50
67353;BMP180;54238;52.278;21.056;2023-04-24T05:56:56;99521.00;;;14.64
67353;BMP180;54238;52.278;21.056;2023-04-24T05:59:24;99515.60;;;14.80
67353;BMP180;54238;52.278;21.056;2023-04-24T06:01:53;99516.20;;;14.90
67353;BMP180;54238;52.278;21.056;2023-04-24T06:04:20;99520.40;;;15.10
67353;BMP180;54238;52.278;21.056;2023-04-24T06:06:52;99522.60;;;15.20
67353;BMP180;54238;52.278;21.056;2023-04-24T06:09:25;99521.60;;;15.30
67353;BMP180;54238;52.278;21.056;2023-04-24T06:11:52;99518.20;;;15.40
67353;BMP180;54238;52.278;21.056;2023-04-24T06:14:20;99515.60;;;15.50
67353;BMP180;54238;52.278;21.056;2023-04-24T06:16:49;99512.40;;;15.60
67353;BMP180;54238;52.278;21.056;2023-04-24T06:19:16;99519.60;;;15.70
67353;BMP180;54238;52.278;21.056;2023-04-24T06:21:48;99508.60;;;15.70
67353;BMP180;54238;52.278;21.056;2023-04-24T06:24:15;99506.20;;;15.80
67353;BMP180;54238;52.278;21.056;2023-04-24T06:26:57;99504.00;;;15.84
67353;BMP180;54238;52.278;21.056;2023-04-24T06:29:27;99497.80;;;15.96
67353;BMP180;54238;52.278;21.056;2023-04-24T06:31:56;99506.00;;;16.08
67353;BMP180;54238;52.278;21.056;2023-04-24T06:34:28;99499.40;;;16.16
67353;BMP180;54238;52.278;21.056;2023-04-24T06:37:02;99499.40;;;16.28
67353;BMP180;54238;52.278;21.056;2023-04-24T06:39:33;99502.00;;;16.40
67353;BMP180;54238;52.278;21.056;2023-04-24T06:42:03;99501.20;;;16.50
67353;BMP180;54238;52.278;21.056;2023-04-24T06:44:38;99501.40;;;16.60
67353;BMP180;54238;52.278;21.056;2023-04-24T06:47:10;99500.00;;;16.70
67353;BMP180;54238;52.278;21.056;2023-04-24T06:49:42;99501.80;;;16.80
67353;BMP180;54238;52.278;21.056;2023-04-24T06:52:09;99501.20;;;16.90
67353;BMP180;54238;52.278;21.056;2023-04-24T06:54:36;99500.00;;;17.00
67353;BMP180;54238;52.278;21.056;2023-04-24T06:57:09;99499.80;;;17.10
67353;BMP180;54238;52.278;21.056;2023-04-24T06:59:37;99501.80;;;17.22
67353;BMP180;54238;52.278;21.056;2023-04-24T07:02:05;99502.60;;;17.34
67353;BMP180;54238;52.278;21.056;2023-04-24T07:04:34;99503.20;;;17.48
67353;BMP180;54238;52.278;21.056;2023-04-24T07:07:02;99503.60;;;17.60
67353;BMP180;54238;52.278;21.056;2023-04-24T07:09:32;99505.00;;;17.70
67353;BMP180;54238;52.278;21.056;2023-04-24T07:11:59;99502.20;;;17.88
67353;BMP180;54238;52.278;21.056;2023-04-24T07:14:33;99503.80;;;18.00
67353;BMP180;54238;52.278;21.056;2023-04-24T07:17:09;99497.20;;;18.10
67353;BMP180;54238;52.278;21.056;2023-04-24T07:19:37;99496.20;;;18.30
67353;BMP180;54238;52.278;21.056;2023-04-24T07:22:03;99495.60;;;18.50
67353;BMP180;54238;52.278;21.056;2023-04-24T07:24:33;99495.00;;;18.68
67353;BMP180;54238;52.278;21.056;2023-04-24T07:27:00;99491.00;;;18.80
67353;BMP180;54238;52.278;21.056;2023-04-24T07:29:30;99495.00;;;18.98
67353;BMP180;54238;52.278;21.056;2023-04-24T07:31:59;99495.00;;;19.10
67353;BMP180;54238;52.278;21.056;2023-04-24T07:34:27;99492.60;;;19.20
67353;BMP180;54238;52.278;21.056;2023-04-24T07:36:57;99488.20;;;19.34
67353;BMP180;54238;52.278;21.056;2023-04-24T07:39:24;99488.60;;;19.50
67353;BMP180;54238;52.278;21.056;2023-04-24T07:41:57;99487.40;;;19.70
67353;BMP180;54238;52.278;21.056;2023-04-24T07:44:30;99487.40;;;19.80
67353;BMP180;54238;52.278;21.056;2023-04-24T07:47:04;99486.80;;;19.94
67353;BMP180;54238;52.278;21.056;2023-04-24T07:49:32;99489.80;;;20.10
67353;BMP180;54238;52.278;21.056;2023-04-24T07:52:03;99483.00;;;20.30
67353;BMP180;54238;52.278;21.056;2023-04-24T07:54:30;99482.80;;;20.50
67353;BMP180;54238;52.278;21.056;2023-04-24T07:57:00;99483.40;;;20.60
67353;BMP180;54238;52.278;21.056;2023-04-24T07:59:30;99483.80;;;20.70
67353;BMP180;54238;52.278;21.056;2023-04-24T08:01:56;99480.00;;;20.80
67353;BMP180;54238;52.278;21.056;2023-04-24T08:04:26;99480.20;;;20.86
67353;BMP180;54238;52.278;21.056;2023-04-24T08:07:05;99478.60;;;20.90
67353;BMP180;54238;52.278;21.056;2023-04-24T08:09:38;99478.40;;;21.00
67353;BMP180;54238;52.278;21.056;2023-04-24T08:12:06;99480.80;;;21.20
67353;BMP180;54238;52.278;21.056;2023-04-24T08:14:37;99480.60;;;21.30
67353;BMP180;54238;52.278;21.056;2023-04-24T08:17:05;99482.60;;;21.40
67353;BMP180;54238;52.278;21.056;2023-04-24T08:19:36;99484.20;;;21.50
67353;BMP180;54238;52.278;21.056;2023-04-24T08:22:06;99481.80;;;21.70
67353;BMP180;54238;52.278;21.056;2023-04-24T08:24:39;99478.20;;;21.90
67353;BMP180;54238;52.278;21.056;2023-04-24T08:27:06;99482.20;;;22.10
67353;BMP180;54238;52.278;21.056;2023-04-24T08:29:38;99489.20;;;22.30
67353;BMP180;54238;52.278;21.056;2023-04-24T08:32:12;99492.20;;;22.50
67353;BMP180;54238;52.278;21.056;2023-04-24T08:34:40;99485.20;;;22.44
67353;BMP180;54238;52.278;21.056;2023-04-24T08:37:08;99491.40;;;22.40
67353;BMP180;54238;52.278;21.056;2023-04-24T08:39:40;99487.20;;;22.30
67353;BMP180;54238;52.278;21.056;2023-04-24T08:42:11;99485.80;;;22.30
67353;BMP180;54238;52.278;21.056;2023-04-24T08:44:43;99488.00;;;22.30
67353;BMP180;54238;52.278;21.056;2023-04-24T08:47:15;99489.80;;;22.30
67353;BMP180;54238;52.278;21.056;2023-04-24T08:49:49;99484.40;;;22.30
67353;BMP180;54238;52.278;21.056;2023-04-24T08:52:22;99484.80;;;22.40
67353;BMP180;54238;52.278;21.056;2023-04-24T08:54:49;99488.40;;;22.42
67353;BMP180;54238;52.278;21.056;2023-04-24T08:57:22;99486.80;;;22.40
67353;BMP180;54238;52.278;21.056;2023-04-24T08:59:51;99487.60;;;22.40
67353;BMP180;54238;52.278;21.056;2023-04-24T09:02:23;99484.00;;;22.30
67353;BMP180;54238;52.278;21.056;2023-04-24T09:04:53;99488.80;;;22.30
67353;BMP180;54238;52.278;21.056;2023-04-24T09:07:27;99490.60;;;22.40
67353;BMP180;54238;52.278;21.056;2023-04-24T09:09:59;99488.80;;;22.40
67353;BMP180;54238;52.278;21.056;2023-04-24T09:12:31;99485.80;;;22.40
67353;BMP180;54238;52.278;21.056;2023-04-24T09:15:00;99488.60;;;22.46
67353;BMP180;54238;52.278;21.056;2023-04-24T09:17:33;99488.40;;;22.62
67353;BMP180;54238;52.278;21.056;2023-04-24T09:20:03;99489.80;;;22.80
67353;BMP180;54238;52.278;21.056;2023-04-24T09:22:31;99484.00;;;22.86
67353;BMP180;54238;52.278;21.056;2023-04-24T09:25:08;99479.80;;;23.10
67353;BMP180;54238;52.278;21.056;2023-04-24T09:27:44;99477.80;;;23.48
67353;BMP180;54238;52.278;21.056;2023-04-24T09:30:12;99474.20;;;23.60
67353;BMP180;54238;52.278;21.056;2023-04-24T09:32:43;99474.20;;;23.70
67353;BMP180;54238;52.278;21.056;2023-04-24T09:35:16;99475.60;;;23.80
67353;BMP180;54238;52.278;21.056;2023-04-24T09:37:49;99471.60;;;23.80
67353;BMP180;54238;52.278;21.056;2023-04-24T09:40:18;99470.40;;;23.80
67353;BMP180;54238;52.278;21.056;2023-04-24T09:42:52;99468.80;;;23.70
67353;BMP180;54238;52.278;21.056;2023-04-24T09:45:27;99466.60;;;23.70
67353;BMP180;54238;52.278;21.056;2023-04-24T09:47:57;99464.40;;;23.90
67353;BMP180;54238;52.278;21.056;2023-04-24T09:50:26;99462.80;;;24.22
67353;BMP180;54238;52.278;21.056;2023-04-24T09:53:01;99458.60;;;24.70
67353;BMP180;54238;52.278;21.056;2023-04-24T09:55:29;99457.60;;;25.18
67353;BMP180;54238;52.278;21.056;2023-04-24T09:58:01;99457.00;;;25.60
67353;BMP180;54238;52.278;21.056;2023-04-24T10:02:02;99447.20;;;26.44
67353;BMP180;54238;52.278;21.056;2023-04-24T10:04:32;99448.20;;;26.62
67353;BMP180;54238;52.278;21.056;2023-04-24T10:07:04;99445.80;;;27.00
67353;BMP180;54238;52.278;21.056;2023-04-24T10:09:34;99445.40;;;27.40
67353;BMP180;54238;52.278;21.056;2023-04-24T10:12:04;99445.00;;;27.72
67353;BMP180;54238;52.278;21.056;2023-04-24T10:14:34;99444.80;;;28.10
67353;BMP180;54238;52.278;21.056;2023-04-24T10:17:05;99441.00;;;28.42
67353;BMP180;54238;52.278;21.056;2023-04-24T10:19:43;99439.00;;;28.78
67353;BMP180;54238;52.278;21.056;2023-04-24T10:22:11;99437.00;;;29.10
67353;BMP180;54238;52.278;21.056;2023-04-24T10:24:40;99437.00;;;29.40
67353;BMP180;54238;52.278;21.056;2023-04-24T10:27:12;99433.80;;;29.70
67353;BMP180;54238;52.278;21.056;2023-04-24T10:29:44;99427.80;;;29.90
67353;BMP180;54238;52.278;21.056;2023-04-24T10:32:16;99426.20;;;30.00
67353;BMP180;54238;52.278;21.056;2023-04-24T10:34:48;99418.80;;;30.10
67353;BMP180;54238;52.278;21.056;2023-04-24T10:37:18;99417.40;;;30.30
67353;BMP180;54238;52.278;21.056;2023-04-24T10:40:09;99421.00;;;30.54
67353;BMP180;54238;52.278;21.056;2023-04-24T10:42:40;99415.40;;;30.88
67353;BMP180;54238;52.278;21.056;2023-04-24T10:45:21;99401.20;;;30.98
67353;BMP180;54238;52.278;21.056;2023-04-24T10:47:58;99416.20;;;31.02
67353;BMP180;54238;52.278;21.056;2023-04-24T10:50:41;99411.40;;;31.20
67353;BMP180;54238;52.278;21.056;2023-04-24T10:53:22;99416.20;;;31.34
67353;BMP180;54238;52.278;21.056;2023-04-24T10:58:45;99407.80;;;31.50
67353;BMP180;54238;52.278;21.056;2023-04-24T11:01:38;99403.00;;;31.72
67353;BMP180;54238;52.278;21.056;2023-04-24T11:04:07;99409.00;;;31.90
67353;BMP180;54238;52.278;21.056;2023-04-24T11:06:37;99407.20;;;32.12
67353;BMP180;54238;52.278;21.056;2023-04-24T11:09:13;99404.00;;;32.10
67353;BMP180;54238;52.278;21.056;2023-04-24T11:11:49;99410.00;;;32.10
67353;BMP180;54238;52.278;21.056;2023-04-24T11:14:16;99405.20;;;32.10
67353;BMP180;54238;52.278;21.056;2023-04-24T11:16:54;99399.80;;;32.20
67353;BMP180;54238;52.278;21.056;2023-04-24T11:19:26;99405.40;;;32.40
67353;BMP180;54238;52.278;21.056;2023-04-24T11:24:38;99409.00;;;32.50
67353;BMP180;54238;52.278;21.056;2023-04-24T11:27:21;99415.20;;;32.70
67353;BMP180;54238;52.278;21.056;2023-04-24T11:35:27;99400.80;;;32.70
67353;BMP180;54238;52.278;21.056;2023-04-24T11:37:56;99414.00;;;32.60
67353;BMP180;54238;52.278;21.056;2023-04-24T11:40:29;99405.00;;;32.50
67353;BMP180;54238;52.278;21.056;2023-04-24T11:43:00;99399.40;;;32.60
67353;BMP180;54238;52.278;21.056;2023-04-24T11:45:30;99397.40;;;32.70
67353;BMP180;54238;52.278;21.056;2023-04-24T11:48:32;99397.40;;;32.90
67353;BMP180;54238;52.278;21.056;2023-04-24T11:51:05;99403.80;;;32.94
67353;BMP180;54238;52.278;21.056;2023-04-24T11:53:32;99396.80;;;32.90
67353;BMP180;54238;52.278;21.056;2023-04-24T11:56:05;99391.00;;;33.10
67353;BMP180;54238;52.278;21.056;2023-04-24T11:58:37;99388.00;;;33.36
67353;BMP180;54238;52.278;21.056;2023-04-24T12:01:07;99387.20;;;33.76
67353;BMP180;54238;52.278;21.056;2023-04-24T12:03:37;99388.40;;;34.00
67353;BMP180;54238;52.278;21.056;2023-04-24T12:06:10;99380.20;;;33.90
67353;BMP180;54238;52.278;21.056;2023-04-24T12:08:40;99384.80;;;34.00
67353;BMP180;54238;52.278;21.056;2023-04-24T12:11:09;99379.60;;;33.90
67353;BMP180;54238;52.278;21.056;2023-04-24T12:13:40;99378.60;;;34.00
67353;BMP180;54238;52.278;21.056;2023-04-24T12:16:07;99366.80;;;34.00
67353;BMP180;54238;52.278;21.056;2023-04-24T12:18:42;99365.00;;;34.00
67353;BMP180;54238;52.278;21.056;2023-04-24T12:21:22;99364.40;;;34.00
67353;BMP180;54238;52.278;21.056;2023-04-24T12:23:57;99360.40;;;34.00
67353;BMP180;54238;52.278;21.056;2023-04-24T12:26:27;99359.80;;;34.10
67353;BMP180;54238;52.278;21.056;2023-04-24T12:28:54;99369.00;;;34.10
67353;BMP180;54238;52.278;21.056;2023-04-24T12:31:27;99356.40;;;34.10
67353;BMP180;54238;52.278;21.056;2023-04-24T12:33:56;99351.80;;;34.10
67353;BMP180;54238;52.278;21.056;2023-04-24T12:36:23;99350.40;;;34.10
67353;BMP180;54238;52.278;21.056;2023-04-24T12:38:55;99348.60;;;34.10
67353;BMP180;54238;52.278;21.056;2023-04-24T12:41:22;99344.00;;;34.20
67353;BMP180;54238;52.278;21.056;2023-04-24T12:43:53;99348.00;;;34.50
67353;BMP180;54238;52.278;21.056;2023-04-24T12:46:26;99349.40;;;34.60
67353;BMP180;54238;52.278;21.056;2023-04-24T12:48:53;99340.80;;;34.62
67353;BMP180;54238;52.278;21.056;2023-04-24T12:51:20;99334.80;;;34.70
67353;BMP180;54238;52.278;21.056;2023-04-24T12:53:47;99335.20;;;34.78
67353;BMP180;54238;52.278;21.056;2023-04-24T12:56:17;99331.20;;;34.60
67353;BMP180;54238;52.278;21.056;2023-04-24T12:58:46;99338.60;;;34.50
67353;BMP180;54238;52.278;21.056;2023-04-24T13:01:16;99385.40;;;33.78
67353;BMP180;54238;52.278;21.056;2023-04-24T13:03:43;99386.80;;;32.94
67353;BMP180;54238;52.278;21.056;2023-04-24T13:06:12;99372.80;;;32.32
67353;BMP180;54238;52.278;21.056;2023-04-24T13:08:44;99391.60;;;31.74
67353;BMP180;54238;52.278;21.056;2023-04-24T13:11:11;99391.40;;;31.02
67353;BMP180;54238;52.278;21.056;2023-04-24T13:13:38;99364.20;;;30.56
67353;BMP180;54238;52.278;21.056;2023-04-24T13:16:07;99386.20;;;30.10
67353;BMP180;54238;52.278;21.056;2023-04-24T13:18:37;99372.80;;;29.90
67353;BMP180;54238;52.278;21.056;2023-04-24T13:21:06;99377.60;;;29.70
67353;BMP180;54238;52.278;21.056;2023-04-24T13:23:38;99362.40;;;29.58
67353;BMP180;54238;52.278;21.056;2023-04-24T13:26:08;99364.00;;;29.40
67353;BMP180;54238;52.278;21.056;2023-04-24T13:28:36;99359.00;;;29.30
67353;BMP180;54238;52.278;21.056;2023-04-24T13:31:04;99354.60;;;29.20
67353;BMP180;54238;52.278;21.056;2023-04-24T13:34:09;99351.00;;;29.60
67353;BMP180;54238;52.278;21.056;2023-04-24T13:36:41;99363.60;;;29.82
67353;BMP180;54238;52.278;21.056;2023-04-24T13:39:13;99354.20;;;30.10
67353;BMP180;54238;52.278;21.056;2023-04-24T13:41:59;99373.20;;;30.44
67353;BMP180;54238;52.278;21.056;2023-04-24T13:44:31;99372.60;;;30.50
67353;BMP180;54238;52.278;21.056;2023-04-24T13:47:00;99409.60;;;30.48
67353;BMP180;54238;52.278;21.056;2023-04-24T13:49:30;99374.80;;;29.48
67353;BMP180;54238;52.278;21.056;2023-04-24T13:52:02;99373.60;;;29.02
67353;BMP180;54238;52.278;21.056;2023-04-24T13:54:35;99388.00;;;28.94
67353;BMP180;54238;52.278;21.056;2023-04-24T13:57:03;99379.00;;;28.40
67353;BMP180;54238;52.278;21.056;2023-04-24T13:59:35;99383.60;;;28.60
67353;BMP180;54238;52.278;21.056;2023-04-24T14:02:07;99385.20;;;29.00
67353;BMP180;54238;52.278;21.056;2023-04-24T14:04:34;99396.40;;;29.34
67353;BMP180;54238;52.278;21.056;2023-04-24T14:07:05;99396.20;;;29.50
67353;BMP180;54238;52.278;21.056;2023-04-24T14:09:35;99397.80;;;28.84
67353;BMP180;54238;52.278;21.056;2023-04-24T14:12:05;99384.80;;;27.98
67353;BMP180;54238;52.278;21.056;2023-04-24T14:14:35;99383.20;;;27.34
67353;BMP180;54238;52.278;21.056;2023-04-24T14:17:02;99372.60;;;26.90
67353;BMP180;54238;52.278;21.056;2023-04-24T14:19:29;99377.60;;;26.60
67353;BMP180;54238;52.278;21.056;2023-04-24T14:21:56;99360.00;;;26.36
67353;BMP180;54238;52.278;21.056;2023-04-24T14:24:24;99349.80;;;26.40
67353;BMP180;54238;52.278;21.056;2023-04-24T14:26:54;99340.00;;;26.50
67353;BMP180;54238;52.278;21.056;2023-04-24T14:29:28;99332.40;;;26.70
67353;BMP180;54238;52.278;21.056;2023-04-24T14:32:00;99326.00;;;26.90